Flight Track Log - Related Links

Times and Time Zones

All times are in EDT time to prevent confusion due to time zone crossing. See the EJA831 flight status page for this flight to view local times or setup timezone preferences in your user account.

Time Position Orientation Groundspeed Altitude Reporting Facility
EDT Latitude Longitude Course Direction KTS MPH feet Rate Location/Type
Fri 06:48:27 PM 40.8014 -111.9642 297° West 155 178 5,300  Level Salt Lake Center
Fri 06:49:16 PM 40.8194 -112.0119 297° West 203 234 7,300 2,604 Climbing Salt Lake Center
Fri 06:50:13 PM 40.8275 -112.1003 277° West 259 298 9,900 1,409 Climbing Salt Lake Center
Fri 06:51:11 PM 40.8114 -112.2128 259° West 319 367 10,000 49 Climbing Salt Lake Center
Fri 06:52:16 PM 40.7350 -112.2769 212° Southwest 321 369 10,000 756 Level Salt Lake Center
Fri 06:53:18 PM 40.6514 -112.2983 191° South 306 352 11,600 1,707 Climbing Salt Lake Center
Fri 06:54:19 PM 40.5625 -112.3122 187° South 321 369 13,500 2,585 Climbing Salt Lake Center
Fri 06:55:21 PM 40.4700 -112.3314 189° South 334 384 16,900 2,878 Climbing Salt Lake Center
Fri 06:56:22 PM 40.3786 -112.3503 189° South 334 384 19,400 2,488 Climbing Salt Lake Center
Fri 06:57:24 PM 40.2894 -112.3928 200° South 342 394 22,000 2,537 Climbing Salt Lake Center
Fri 06:58:25 PM 40.1842 -112.4683 209° Southwest 358 412 24,600 1,951 Climbing Salt Lake Center
Fri 06:59:27 PM 40.1242 -112.5819 235° Southwest 377 434 26,000 823 Climbing Salt Lake Center
Fri 07:00:29 PM 40.0564 -112.7044 234° Southwest 419 482 26,300 1,171 Climbing Salt Lake Center
Fri 07:01:30 PM 39.9894 -112.8267 234° Southwest 418 481 28,400 2,000 Climbing Salt Lake Center
Fri 07:02:32 PM 39.9194 -112.9397 231° Southwest 408 470 30,400 1,742 Climbing Salt Lake Center
Fri 07:03:34 PM 39.8289 -113.0256 216° Southwest 404 465 32,000 780 Climbing Salt Lake Center
Fri 07:04:35 PM 39.7153 -113.1219 213° Southwest 423 487 32,000 976 Level Salt Lake Center
Fri 07:05:37 PM 39.6089 -113.2006 210° Southwest 438 504 34,000 1,935 Climbing Salt Lake Center
Fri 07:06:39 PM 39.5011 -113.2508 200° South 416 479 36,000 1,463 Climbing Salt Lake Center
Fri 07:07:40 PM 39.3956 -113.3006 200° South 407 468 37,000 829 Climbing Salt Lake Center
Fri 07:08:42 PM 39.2836 -113.3558 201° Southwest 428 493 37,700 878 Climbing Salt Lake Center
Fri 07:09:43 PM 39.1719 -113.4097 201° Southwest 431 496 38,800 1,073 Climbing Salt Lake Center
Fri 07:10:45 PM 39.0383 -113.4728 200° South 428 493 39,900 581 Climbing Salt Lake Center
Fri 07:11:47 PM 38.9269 -113.5261 200° South 429 494 40,000 48 Climbing Salt Lake Center
Fri 07:12:49 PM 38.8175 -113.5783 200° South 423 487 40,000  Level Salt Lake Center
Fri 07:13:50 PM 38.7114 -113.6278 200° South 410 472 40,000  Level Salt Lake Center
Fri 07:14:52 PM 38.6025 -113.6797 200° South 416 479 40,000  Level Salt Lake Center
Fri 07:15:54 PM 38.4939 -113.7317 201° Southwest 419 482 40,000  Level Salt Lake Center
Fri 07:16:55 PM 38.3828 -113.7836 200° South 424 488 40,000  Level Salt Lake Center
Fri 07:17:57 PM 38.2503 -113.8450 200° South 425 489 40,000  Level Salt Lake Center
Fri 07:18:59 PM 38.1394 -113.8972 200° South 426 490 40,000  Level Salt Lake Center
Fri 07:20:01 PM 38.0281 -113.9492 200° South 428 493 40,000  Level Salt Lake Center
Fri 07:21:02 PM 37.9175 -114.0011 200° South 426 490 40,000  Level Salt Lake Center
Fri 07:22:04 PM 37.8072 -114.0511 200° South 426 490 40,000  Level Salt Lake Center
Fri 07:23:06 PM 37.6961 -114.1031 200° South 427 491 40,000  Level Salt Lake Center
Fri 07:24:08 PM 37.5619 -114.1650 200° South 430 495 40,000  Level Salt Lake Center
Fri 07:24:33 PM 37.5169 -114.1847 199° South 432 497 40,000  Level Los Angeles Center
Fri 07:25:35 PM 37.4044 -114.2353 200° South 432 497 40,000  Level Los Angeles Center
Fri 07:26:49 PM 37.2872 -114.2878 200° South 429 494 40,000  Level Los Angeles Center
Fri 07:27:52 PM 37.1536 -114.3489 200° South 427 491 40,000  Level Los Angeles Center
Fri 07:28:54 PM 37.0411 -114.3981 199° South 427 491 40,000  Level Los Angeles Center
Fri 07:29:56 PM 36.9297 -114.4492 200° South 427 491 40,000  Level Los Angeles Center
Fri 07:31:10 PM 36.7950 -114.5089 200° South 427 491 40,000  Level Los Angeles Center
Fri 07:32:12 PM 36.6606 -114.5683 200° South 427 491 40,000  Level Los Angeles Center
Fri 07:33:15 PM 36.5492 -114.6169 199° South 424 488 40,000  Level Los Angeles Center
Fri 07:34:17 PM 36.4383 -114.6667 200° South 421 484 40,000  Level Los Angeles Center
Fri 07:35:19 PM 36.3283 -114.7167 200° South 419 482 40,000  Level Los Angeles Center
Fri 07:36:21 PM 36.2172 -114.7653 199° South 420 483 40,000  Level Los Angeles Center
Fri 07:37:23 PM 36.1058 -114.8139 199° South 420 483 40,000  Level Los Angeles Center
Fri 07:38:25 PM 35.9794 -114.8894 206° Southwest 417 480 40,000  Level Los Angeles Center
Fri 07:39:27 PM 35.8992 -114.9928 226° Southwest 413 475 40,000  Level Los Angeles Center
Fri 07:40:29 PM 35.8206 -115.1006 228° Southwest 419 482 40,000  Level Los Angeles Center
Fri 07:41:31 PM 35.7428 -115.2056 228° Southwest 415 478 40,000  Level Los Angeles Center
Fri 07:42:33 PM 35.6806 -115.2911 228° Southwest 416 479 40,000  Level Los Angeles Center
Fri 07:43:35 PM 35.5850 -115.4200 228° Southwest 420 483 40,000 -192 Level Los Angeles Center
Fri 07:44:38 PM 35.5061 -115.5267 228° Southwest 421 484 39,600 -768 Descending Los Angeles Center
Fri 07:45:40 PM 35.4189 -115.6428 227° Southwest 434 499 38,400 -1,113 Descending Los Angeles Center
Fri 07:46:42 PM 35.3347 -115.7547 227° Southwest 444 511 37,300 -1,065 Descending Los Angeles Center
Fri 07:47:44 PM 35.2525 -115.8619 227° Southwest 437 503 36,200 -1,161 Descending Los Angeles Center
Fri 07:48:46 PM 35.1542 -115.9958 228° Southwest 432 497 34,900 -823 Descending Los Angeles Center
Fri 07:49:48 PM 35.0736 -116.1008 227° Southwest 426 490 34,500 -435 Descending Los Angeles Center
Fri 07:50:50 PM 34.9939 -116.2033 227° Southwest 427 491 34,000 -484 Descending Los Angeles Center
Fri 07:51:52 PM 34.9133 -116.3106 228° Southwest 430 495 33,500 -1,161 Descending Los Angeles Center
Fri 07:52:54 PM 34.8281 -116.4211 227° Southwest 443 510 31,600 -1,790 Descending Los Angeles Center
Fri 07:53:56 PM 34.7403 -116.5311 226° Southwest 449 517 29,800 -1,935 Descending Los Angeles Center
Fri 07:54:58 PM 34.6356 -116.6575 225° Southwest 442 509 27,600 -2,758 Descending Los Angeles Center
Fri 07:56:00 PM 34.5514 -116.7619 226° Southwest 435 501 24,100 -3,312 Descending Los Angeles Center
Fri 07:57:03 PM 34.4692 -116.8617 225° Southwest 422 486 20,700 -3,168 Descending Los Angeles Center
Fri 07:58:05 PM 34.3928 -116.9556 225° Southwest 396 456 17,500 -3,097 Descending Los Angeles Center
Fri 07:59:07 PM 34.3183 -117.0461 225° Southwest 380 437 14,300 -2,661 Descending Los Angeles Center
Fri 08:00:09 PM 34.2497 -117.1294 225° Southwest 350 403 12,000 -2,032 Descending Los Angeles Center
Fri 08:01:11 PM 34.1678 -117.1808 207° Southwest 287 330 10,100 -1,886 Descending Los Angeles Center
Fri 08:01:54 PM 34.1167 -117.2167 210° Southwest 286 329 8,700 -2,330 Descending Southern California TRACON
Fri 08:02:54 PM 34.0333 -117.2500 198° South 289 333 6,100 -1,850 Descending Southern California TRACON
Fri 08:03:54 PM 33.9667 -117.2833 203° Southwest 259 298 5,000 -900 Descending Southern California TRACON
Fri 08:04:54 PM 33.9500 -117.3500 253° West 177 204 4,300 -1,450 Descending Southern California TRACON
Fri 08:05:54 PM 33.9333 -117.3833 239° Southwest 134 154 2,100 -1,600 Descending Southern California TRACON
Fri 08:06:54 PM 33.9500 -117.4167 301° West 109 125 1,100 -1,000 Descending Southern California TRACON
Fri 08:08:00 PM 33.9500 -117.4333 270° West  Level FlightAware Approximate
Fri 08:15:00 PM 33.9519 -117.4451 270° West  Level Estimated
Fri 08:16:00 PM 33.9519 -117.4451 270° West  Level Estimated

Login

Don't have an account? Register now (free) for customized features, flight alerts, and more!